createdAt,value
2022-08-27T00:00:44.585Z,12.20
2022-08-27T00:03:50.590Z,12.70
2022-08-27T00:07:00.402Z,12.63
2022-08-27T00:10:10.652Z,11.00
2022-08-27T00:13:18.448Z,11.07
2022-08-27T00:16:24.808Z,11.73
2022-08-27T00:19:31.851Z,10.00
2022-08-27T00:22:41.627Z,12.40
2022-08-27T00:25:49.455Z,10.53
2022-08-27T00:28:56.025Z,10.53
2022-08-27T00:32:03.617Z,9.67
2022-08-27T00:35:11.146Z,9.33
2022-08-27T00:38:21.667Z,11.90
2022-08-27T00:41:28.365Z,8.70
2022-08-27T00:44:35.774Z,12.10
2022-08-27T00:47:49.991Z,8.77
2022-08-27T00:51:03.100Z,10.63
2022-08-27T00:54:16.084Z,9.53
2022-08-27T00:57:25.801Z,14.10
2022-08-27T01:00:31.947Z,11.70
2022-08-27T01:03:39.617Z,12.30
2022-08-27T01:06:45.504Z,9.87
2022-08-27T01:09:56.713Z,9.20
2022-08-27T01:13:03.370Z,10.80
2022-08-27T01:16:12.426Z,10.83
2022-08-27T01:19:25.015Z,12.83
2022-08-27T01:22:39.504Z,11.63
2022-08-27T01:25:49.012Z,17.23
2022-08-27T01:28:56.745Z,9.33
2022-08-27T01:32:10.387Z,13.47
2022-08-27T01:35:18.285Z,10.67
2022-08-27T01:38:30.788Z,10.30
2022-08-27T01:41:41.190Z,11.90
2022-08-27T01:44:50.131Z,8.70
2022-08-27T01:47:57.408Z,11.77
2022-08-27T01:51:03.525Z,9.13
2022-08-27T01:54:11.146Z,8.33
2022-08-27T01:57:24.062Z,7.63
2022-08-27T02:00:35.022Z,10.03
2022-08-27T02:03:43.103Z,9.87
2022-08-27T02:06:50.087Z,9.20
2022-08-27T02:09:56.560Z,9.53
2022-08-27T02:13:07.282Z,10.57
2022-08-27T02:16:13.534Z,13.63
2022-08-27T02:19:21.765Z,12.87
2022-08-27T02:22:28.052Z,13.60
2022-08-27T02:25:35.171Z,10.10
2022-08-27T02:28:44.012Z,9.57
2022-08-27T02:31:50.985Z,11.87
2022-08-27T02:34:57.106Z,10.20
2022-08-27T02:38:06.145Z,11.20
2022-08-27T02:41:12.103Z,10.90
2022-08-27T02:44:21.673Z,10.47
2022-08-27T02:47:27.805Z,11.67
2022-08-27T02:50:35.918Z,10.17
2022-08-27T02:53:44.540Z,13.30
2022-08-27T02:56:53.215Z,11.40
2022-08-27T03:00:03.133Z,13.13
2022-08-27T03:03:10.883Z,11.07
2022-08-27T03:06:17.314Z,15.80
2022-08-27T03:09:24.708Z,12.37
2022-08-27T03:12:30.640Z,14.03
2022-08-27T03:15:40.361Z,10.20
2022-08-27T03:18:46.261Z,10.63
2022-08-27T03:21:54.655Z,11.37
2022-08-27T03:25:01.210Z,11.20
2022-08-27T03:28:22.561Z,9.67
2022-08-27T03:31:32.342Z,14.13
2022-08-27T03:34:39.222Z,13.57
2022-08-27T03:37:45.345Z,11.70
2022-08-27T03:40:52.622Z,12.67
2022-08-27T03:43:58.727Z,12.40
2022-08-27T03:47:09.704Z,11.60
2022-08-27T03:50:15.843Z,11.63
2022-08-27T03:53:23.558Z,14.87
2022-08-27T03:56:29.442Z,10.37
2022-08-27T03:59:36.718Z,13.27
2022-08-27T04:02:46.581Z,13.33
2022-08-27T04:05:56.830Z,13.80
2022-08-27T04:09:03.408Z,13.70
2022-08-27T04:12:11.980Z,12.50
2022-08-27T04:15:17.915Z,10.37
2022-08-27T04:18:27.654Z,8.63
2022-08-27T04:21:34.069Z,13.43
2022-08-27T04:24:41.274Z,14.43
2022-08-27T04:27:48.302Z,12.00
2022-08-27T04:30:55.085Z,16.37
2022-08-27T04:34:05.214Z,11.60
2022-08-27T04:37:11.978Z,11.97
2022-08-27T04:40:17.985Z,11.53
2022-08-27T04:43:25.331Z,12.17
2022-08-27T04:46:33.383Z,17.13
2022-08-27T04:49:43.761Z,9.97
2022-08-27T04:52:49.871Z,11.43
2022-08-27T04:55:59.378Z,13.13
2022-08-27T04:59:10.226Z,13.63
2022-08-27T05:02:17.842Z,15.13
2022-08-27T05:05:26.672Z,12.13
2022-08-27T05:08:34.246Z,14.30
2022-08-27T05:11:42.279Z,14.63
2022-08-27T05:14:49.076Z,11.63
2022-08-27T05:17:55.186Z,11.13
2022-08-27T05:21:06.187Z,13.30
2022-08-27T05:24:12.594Z,10.87
2022-08-27T05:27:19.619Z,13.87
2022-08-27T05:30:25.779Z,13.20
2022-08-27T05:33:33.518Z,11.10
2022-08-27T05:36:49.133Z,8.53
2022-08-27T05:39:56.527Z,9.07
2022-08-27T05:43:03.111Z,14.50
2022-08-27T05:46:12.320Z,10.93
2022-08-27T05:49:18.713Z,13.20
2022-08-27T05:52:29.054Z,10.67
2022-08-27T05:55:40.389Z,8.90
2022-08-27T05:59:03.359Z,10.67
2022-08-27T06:02:09.710Z,9.20
2022-08-27T06:05:16.855Z,9.33
2022-08-27T06:08:26.221Z,8.00
2022-08-27T06:11:33.057Z,8.17
2022-08-27T06:14:39.805Z,13.87
2022-08-27T06:17:46.508Z,8.93
2022-08-27T06:20:52.637Z,12.17
2022-08-27T06:24:03.368Z,8.57
2022-08-27T06:27:09.610Z,9.50
2022-08-27T06:30:17.662Z,9.60
2022-08-27T06:33:23.959Z,8.77
2022-08-27T06:36:32.762Z,9.33
2022-08-27T06:39:42.467Z,11.13
2022-08-27T06:42:50.016Z,14.55
2022-08-27T06:45:56.710Z,9.13
2022-08-27T06:49:06.470Z,6.60
2022-08-27T06:52:12.801Z,10.23
2022-08-27T06:55:22.545Z,13.95
2022-08-27T06:58:28.385Z,8.37
2022-08-27T07:01:37.775Z,6.93
2022-08-27T07:04:43.718Z,8.60
2022-08-27T07:07:50.826Z,10.60
2022-08-27T07:11:03.132Z,11.07
2022-08-27T07:14:11.836Z,9.73
2022-08-27T07:17:17.768Z,7.22
2022-08-27T07:20:25.589Z,10.73
2022-08-27T07:23:31.454Z,7.93
2022-08-27T07:26:44.600Z,9.05
2022-08-27T07:29:50.849Z,11.75
2022-08-27T07:32:57.691Z,12.02
2022-08-27T07:36:04.192Z,8.85
2022-08-27T07:39:14.119Z,9.68
2022-08-27T07:42:53.486Z,11.65
2022-08-27T07:46:05.126Z,10.35
2022-08-27T07:49:11.311Z,12.07
2022-08-27T07:52:18.667Z,12.80
2022-08-27T07:55:24.504Z,11.90
2022-08-27T07:58:34.054Z,8.13
2022-08-27T08:01:42.796Z,8.57
2022-08-27T08:04:49.932Z,8.45
2022-08-27T08:07:56.096Z,10.10
2022-08-27T08:11:04.014Z,12.57
2022-08-27T08:14:12.790Z,9.20
2022-08-27T08:17:19.545Z,9.07
2022-08-27T08:20:54.315Z,13.07
2022-08-27T08:23:52.473Z,9.00
2022-08-27T08:26:58.345Z,10.35
2022-08-27T08:30:10.499Z,10.52
2022-08-27T08:33:17.411Z,8.52
2022-08-27T08:36:24.179Z,10.10
2022-08-27T08:39:30.108Z,12.40
2022-08-27T08:42:50.557Z,12.00
2022-08-27T08:46:08.092Z,11.23
2022-08-27T08:49:24.648Z,11.85
2022-08-27T08:52:42.975Z,8.45
2022-08-27T08:55:54.818Z,9.25
2022-08-27T08:59:06.208Z,11.50
2022-08-27T09:02:18.434Z,13.07
2022-08-27T09:05:27.469Z,9.38
2022-08-27T09:08:41.386Z,11.07
2022-08-27T09:11:56.401Z,13.05
2022-08-27T09:15:09.354Z,14.55
2022-08-27T09:18:21.686Z,15.52
2022-08-27T09:21:39.328Z,14.50
2022-08-27T09:24:56.184Z,13.85
2022-08-27T09:28:27.668Z,13.82
2022-08-27T09:31:41.111Z,18.33
2022-08-27T09:34:52.287Z,15.65
2022-08-27T09:38:00.093Z,12.65
2022-08-27T09:41:11.499Z,13.52
2022-08-27T09:44:23.064Z,13.68
2022-08-27T09:47:30.461Z,10.65
2022-08-27T09:50:43.837Z,11.50
2022-08-27T09:53:54.924Z,10.63
2022-08-27T09:57:01.143Z,14.45
2022-08-27T10:00:12.660Z,14.40
2022-08-27T10:03:18.875Z,13.63
2022-08-27T10:06:34.113Z,12.23
2022-08-27T10:09:50.862Z,15.30
2022-08-27T10:13:10.599Z,11.68
2022-08-27T10:16:39.726Z,13.32
2022-08-27T10:19:58.226Z,15.80
2022-08-27T10:23:21.171Z,14.63
2022-08-27T10:26:33.684Z,12.82
2022-08-27T10:29:50.395Z,12.98
2022-08-27T10:33:07.628Z,12.68
2022-08-27T10:36:29.702Z,16.02
2022-08-27T10:39:53.076Z,10.93
2022-08-27T10:43:14.319Z,13.73
2022-08-27T10:46:50.552Z,10.38
2022-08-27T10:50:13.385Z,13.60
2022-08-27T10:54:06.010Z,12.65
2022-08-27T10:57:53.194Z,12.73
2022-08-27T11:00:51.598Z,8.80
2022-08-27T11:04:03.511Z,10.10
2022-08-27T11:07:17.848Z,9.93
2022-08-27T11:10:28.473Z,10.25
2022-08-27T11:13:41.464Z,10.00
2022-08-27T11:16:53.002Z,8.68
2022-08-27T11:20:07.024Z,8.63
2022-08-27T11:23:18.393Z,9.43
2022-08-27T11:26:25.117Z,6.03
2022-08-27T11:29:38.190Z,7.22
2022-08-27T11:32:58.163Z,5.95
2022-08-27T11:36:33.625Z,6.10
2022-08-27T11:39:55.009Z,8.75
2022-08-27T11:43:07.453Z,4.82
2022-08-27T11:46:26.558Z,11.38
2022-08-27T11:49:46.814Z,5.97
2022-08-27T11:53:12.931Z,7.72
2022-08-27T11:56:24.363Z,5.97
2022-08-27T11:59:36.930Z,10.35
2022-08-27T12:02:46.060Z,11.60
2022-08-27T12:06:11.738Z,8.20
2022-08-27T12:09:20.750Z,6.22
2022-08-27T12:12:37.497Z,9.43
2022-08-27T12:16:03.463Z,9.43
2022-08-27T12:19:25.966Z,8.95
2022-08-27T12:23:04.637Z,5.60
2022-08-27T12:26:35.722Z,8.23
2022-08-27T12:29:44.832Z,6.03
2022-08-27T12:32:54.697Z,7.75
2022-08-27T12:36:12.363Z,6.43
2022-08-27T12:39:22.431Z,5.85
2022-08-27T12:42:29.013Z,5.53
2022-08-27T12:45:36.421Z,6.80
2022-08-27T12:48:48.276Z,8.60
2022-08-27T12:51:59.101Z,6.13
2022-08-27T12:55:16.297Z,6.05
2022-08-27T12:58:32.312Z,9.05
2022-08-27T13:01:56.025Z,8.63
2022-08-27T13:05:10.485Z,6.78
2022-08-27T13:08:30.112Z,7.70
2022-08-27T13:11:46.402Z,10.65
2022-08-27T13:14:56.992Z,7.75
2022-08-27T13:18:07.210Z,5.88
2022-08-27T13:21:19.950Z,7.25
2022-08-27T13:24:35.424Z,9.23
2022-08-27T13:27:41.684Z,13.55
2022-08-27T13:30:50.445Z,6.75
2022-08-27T13:33:59.482Z,7.03
2022-08-27T13:37:09.780Z,6.68
2022-08-27T13:40:31.785Z,7.90
2022-08-27T13:43:42.215Z,6.55
2022-08-27T13:46:51.628Z,6.53
2022-08-27T13:50:07.844Z,6.50
2022-08-27T13:53:30.544Z,9.48
2022-08-27T13:56:42.564Z,7.68
2022-08-27T13:59:50.079Z,6.22
2022-08-27T14:02:59.043Z,8.27
2022-08-27T14:06:06.466Z,8.00
2022-08-27T14:09:20.046Z,7.47
2022-08-27T14:12:35.491Z,4.78
2022-08-27T14:15:44.754Z,8.70
2022-08-27T14:18:59.210Z,7.45
2022-08-27T14:22:06.959Z,5.97
2022-08-27T14:25:13.197Z,6.85
2022-08-27T14:28:24.077Z,6.18
2022-08-27T14:31:29.965Z,6.75
2022-08-27T14:34:37.528Z,11.57
2022-08-27T14:37:45.170Z,7.13
2022-08-27T14:40:54.866Z,10.73
2022-08-27T14:44:03.854Z,10.82
2022-08-27T14:47:14.855Z,6.38
2022-08-27T14:50:21.313Z,7.32
2022-08-27T14:53:29.023Z,4.70
2022-08-27T14:56:35.054Z,7.18
2022-08-27T14:59:44.631Z,6.15
2022-08-27T15:02:52.277Z,8.30
2022-08-27T15:05:59.977Z,5.65
2022-08-27T15:09:08.059Z,6.68
2022-08-27T15:12:26.342Z,6.57
2022-08-27T15:15:35.559Z,8.10
2022-08-27T15:18:42.350Z,5.90
2022-08-27T15:22:06.460Z,5.68
2022-08-27T15:25:14.199Z,6.63
2022-08-27T15:28:20.148Z,6.38
2022-08-27T15:31:29.879Z,5.97
2022-08-27T15:34:35.888Z,9.32
2022-08-27T15:37:44.177Z,6.18
2022-08-27T15:40:50.272Z,6.72
2022-08-27T15:43:57.214Z,7.22
2022-08-27T15:47:06.520Z,6.55
2022-08-27T15:50:14.160Z,5.75
2022-08-27T15:53:25.131Z,5.25
2022-08-27T15:56:34.568Z,7.25
2022-08-27T15:59:40.769Z,5.95
2022-08-27T16:02:51.313Z,5.13
2022-08-27T16:05:57.336Z,5.55
2022-08-27T16:09:07.628Z,6.72
2022-08-27T16:12:26.900Z,5.88
2022-08-27T16:15:36.350Z,7.47
2022-08-27T16:18:46.643Z,8.15
2022-08-27T16:21:54.323Z,8.98
2022-08-27T16:25:00.820Z,5.82
2022-08-27T16:28:08.471Z,5.97
2022-08-27T16:31:16.405Z,6.22
2022-08-27T16:34:30.274Z,6.40
2022-08-27T16:37:36.234Z,5.70
2022-08-27T16:40:45.914Z,7.47
2022-08-27T16:43:52.345Z,8.27
2022-08-27T16:47:00.914Z,9.90
2022-08-27T16:50:27.199Z,12.70
2022-08-27T16:53:36.523Z,7.32
2022-08-27T16:56:43.628Z,8.13
2022-08-27T16:59:55.118Z,11.88
2022-08-27T17:03:01.221Z,6.40
2022-08-27T17:06:12.745Z,9.18
2022-08-27T17:09:18.823Z,7.85
2022-08-27T17:12:26.111Z,9.43
2022-08-27T17:15:32.555Z,8.65
2022-08-27T17:18:40.436Z,11.02
2022-08-27T17:21:50.292Z,8.18
2022-08-27T17:24:57.037Z,10.05
2022-08-27T17:28:03.379Z,8.30
2022-08-27T17:31:11.689Z,9.13
2022-08-27T17:34:20.956Z,7.85
2022-08-27T17:37:30.507Z,7.05
2022-08-27T17:40:36.679Z,7.63
2022-08-27T17:43:43.869Z,9.02
2022-08-27T17:46:50.242Z,10.55
2022-08-27T17:49:58.619Z,7.13
2022-08-27T17:53:07.561Z,8.18
2022-08-27T17:56:14.293Z,8.15
2022-08-27T17:59:20.770Z,9.88
2022-08-27T18:02:33.321Z,8.45
2022-08-27T18:05:39.177Z,7.95
2022-08-27T18:08:48.855Z,8.05
2022-08-27T18:11:56.535Z,8.85
2022-08-27T18:15:10.268Z,10.38
2022-08-27T18:18:20.531Z,8.00
2022-08-27T18:21:27.320Z,9.88
2022-08-27T18:24:37.179Z,8.88
2022-08-27T18:27:47.827Z,7.90
2022-08-27T18:30:54.280Z,8.02
2022-08-27T18:34:03.945Z,10.35
2022-08-27T18:37:10.062Z,10.50
2022-08-27T18:40:22.595Z,12.25
2022-08-27T18:43:35.177Z,8.40
2022-08-27T18:46:56.843Z,11.27
2022-08-27T18:50:03.349Z,11.70
2022-08-27T18:53:10.405Z,13.27
2022-08-27T18:56:21.862Z,11.13
2022-08-27T18:59:28.841Z,9.45
2022-08-27T19:02:36.037Z,11.18
2022-08-27T19:05:43.340Z,9.98
2022-08-27T19:08:50.171Z,13.02
2022-08-27T19:12:00.239Z,11.27
2022-08-27T19:15:09.332Z,11.15
2022-08-27T19:18:16.177Z,10.63
2022-08-27T19:21:22.102Z,10.95
2022-08-27T19:24:29.491Z,11.48
2022-08-27T19:27:39.606Z,11.98
2022-08-27T19:30:46.760Z,14.10
2022-08-27T19:33:53.116Z,13.30
2022-08-27T19:37:03.018Z,12.52
2022-08-27T19:40:10.174Z,16.45
2022-08-27T19:43:21.457Z,14.70
2022-08-27T19:46:29.266Z,12.35
2022-08-27T19:49:36.834Z,12.60
2022-08-27T19:52:42.717Z,12.68
2022-08-27T19:55:50.306Z,15.80
2022-08-27T19:59:08.734Z,16.67
2022-08-27T20:02:24.104Z,12.68
2022-08-27T20:05:30.061Z,12.98
2022-08-27T20:08:36.894Z,12.30
2022-08-27T20:11:43.493Z,12.13
2022-08-27T20:14:53.458Z,14.45
2022-08-27T20:18:03.027Z,13.18
2022-08-27T20:21:10.343Z,13.57
2022-08-27T20:24:16.700Z,10.63
2022-08-27T20:27:23.592Z,12.35
2022-08-27T20:30:34.251Z,15.32
2022-08-27T20:33:41.071Z,11.80
2022-08-27T20:36:47.027Z,12.57
2022-08-27T20:39:56.933Z,12.02
2022-08-27T20:43:03.827Z,10.32
2022-08-27T20:46:15.056Z,12.15
2022-08-27T20:49:21.789Z,9.27
2022-08-27T20:52:29.004Z,8.65
2022-08-27T20:55:35.228Z,9.60
2022-08-27T20:58:57.552Z,10.02
2022-08-27T21:02:10.724Z,8.23
2022-08-27T21:05:21.110Z,8.50
2022-08-27T21:08:27.017Z,7.95
2022-08-27T21:11:33.752Z,8.05
2022-08-27T21:14:40.083Z,12.18
2022-08-27T21:18:06.062Z,9.65
2022-08-27T21:21:15.494Z,8.60
2022-08-27T21:24:23.075Z,8.45
2022-08-27T21:27:28.998Z,8.60
2022-08-27T21:30:36.259Z,7.13
2022-08-27T21:33:45.230Z,9.93
2022-08-27T21:36:52.238Z,9.18
2022-08-27T21:39:58.234Z,8.93
2022-08-27T21:43:07.432Z,7.93
2022-08-27T21:46:13.482Z,7.80
2022-08-27T21:49:23.123Z,8.20
2022-08-27T21:52:29.066Z,10.38
2022-08-27T21:55:37.721Z,9.70
2022-08-27T21:58:44.267Z,8.68
2022-08-27T22:02:00.180Z,11.10
2022-08-27T22:05:11.852Z,8.70
2022-08-27T22:08:21.169Z,9.18
2022-08-27T22:11:27.602Z,8.88
2022-08-27T22:14:37.562Z,11.60
2022-08-27T22:17:47.144Z,11.57
2022-08-27T22:20:59.129Z,13.60
2022-08-27T22:24:06.228Z,11.87
2022-08-27T22:27:12.994Z,11.80
2022-08-27T22:30:19.233Z,9.88
2022-08-27T22:33:26.044Z,11.20
2022-08-27T22:36:35.260Z,10.63
2022-08-27T22:39:41.946Z,12.00
2022-08-27T22:42:48.507Z,9.37
2022-08-27T22:45:55.244Z,9.05
2022-08-27T22:49:01.368Z,8.83
2022-08-27T22:52:11.850Z,8.73
2022-08-27T22:55:20.414Z,8.52
2022-08-27T22:58:27.278Z,8.48
2022-08-27T23:01:33.602Z,9.83
2022-08-27T23:04:54.574Z,9.53
2022-08-27T23:08:04.221Z,11.70
2022-08-27T23:11:11.200Z,9.77
2022-08-27T23:14:17.219Z,10.00
2022-08-27T23:17:24.410Z,7.30
2022-08-27T23:20:33.131Z,12.23
2022-08-27T23:23:42.784Z,7.93
2022-08-27T23:27:04.345Z,9.40
2022-08-27T23:30:13.357Z,8.60
2022-08-27T23:33:19.274Z,12.37
2022-08-27T23:36:26.918Z,9.20
2022-08-27T23:39:35.584Z,8.03
2022-08-27T23:42:43.838Z,8.00
2022-08-27T23:45:50.460Z,10.57
2022-08-27T23:48:57.870Z,11.63
2022-08-27T23:52:03.774Z,11.07
2022-08-27T23:55:15.332Z,10.57
2022-08-27T23:58:21.361Z,8.97
